Impacts TAF Board INFO
FOR SITUATIONAL AWARENESS. NOT TO BE USED FOR FLIGHT PLANNING PURPOSES.
IDs:

KTCL - Tuscaloosa Rgnl, AL, US

Issued at 2338 UTC 19 Nov 2017
Updated at 0339 UTC 20 Nov 2017
Potential Impact None Slight Moderate High
Time0253Z 20/04Z 20/05Z 20/06Z 20/07Z 20/08Z 20/09Z 20/10Z 20/11Z 20/12Z 20/13Z 20/14Z 20/15Z 20/16Z>>
Type OBS PRVL PRVL PRVL PRVL PRVL PRVL PRVL PRVL PRVL PRVL PRVL PRVL PRVL
VIS 10 >6 >6 >6 >6 >6 >6 >6 >6 >6 >6 >6 >6 >6
CIG -- -- -- -- -- -- -- -- -- -- -- -- -- --
Cover CLR SKC SKC SKC SKC SKC SKC SKC SKC SKC SKC SKC SCT SCT
FltCat VFR VFR VFR VFR VFR VFR VFR VFR VFR VFR VFR VFR VFR VFR
WX -- -- -- -- -- -- -- -- -- -- -- -- -- --
WDir VRB VRB VRB VRB VRB VRB VRB VRB VRB VRB VRB VRB 80 80
WSpd 0 2 2 2 2 2 2 2 2 2 2 2 5 5
WGst -- -- -- -- -- -- -- -- -- -- -- -- -- --

Raw TAF
KTCL 192338Z 2000/2024 34005KT P6SM SKC
  FM200300 VRB02KT P6SM SKC
  FM201500 08005KT P6SM SCT300


Raw METAR
KTCL 200253Z AUTO 00000KT 10SM CLR 03/02 A3022 RMK AO2 SLP234 T00330017 53013
KTCL 200153Z 03004KT 10SM CLR 06/01 A3021 RMK AO2 SLP229 T00560011
KTCL 200053Z 36006KT 10SM CLR 07/01 A3020 RMK AO2 SLP225 T00720006

METAR Board
Radar Display
Forecast Discussion

FOR SITUATIONAL AWARENESS. NOT TO BE USED FOR FLIGHT PLANNING PURPOSES.